createdAt,value
2023-04-18T00:00:35.898Z,8.46
2023-04-18T00:03:16.652Z,8.50
2023-04-18T00:05:48.049Z,8.56
2023-04-18T00:08:18.649Z,8.61
2023-04-18T00:10:47.688Z,8.61
2023-04-18T00:13:18.510Z,8.60
2023-04-18T00:15:47.682Z,8.51
2023-04-18T00:18:22.576Z,8.47
2023-04-18T00:20:51.611Z,8.48
2023-04-18T00:23:22.410Z,8.57
2023-04-18T00:25:51.094Z,8.58
2023-04-18T00:28:19.474Z,8.61
2023-04-18T00:30:49.081Z,8.64
2023-04-18T00:33:17.765Z,8.60
2023-04-18T00:35:46.859Z,8.65
2023-04-18T00:38:16.300Z,8.61
2023-04-18T00:40:46.923Z,8.69
2023-04-18T00:43:15.575Z,8.70
2023-04-18T00:45:44.765Z,8.67
2023-04-18T00:48:16.148Z,8.71
2023-04-18T00:50:45.239Z,8.73
2023-04-18T00:53:15.609Z,8.67
2023-04-18T00:55:44.626Z,8.75
2023-04-18T00:58:15.498Z,8.79
2023-04-18T01:00:44.684Z,8.81
2023-04-18T01:03:14.828Z,8.79
2023-04-18T01:05:43.970Z,8.79
2023-04-18T01:08:13.221Z,8.81
2023-04-18T01:10:42.293Z,8.76
2023-04-18T01:13:20.730Z,8.68
2023-04-18T01:15:51.237Z,8.62
2023-04-18T01:18:20.971Z,8.55
2023-04-18T01:22:02.688Z,8.55
2023-04-18T01:24:39.488Z,8.60
2023-04-18T01:27:08.469Z,8.58
2023-04-18T01:29:38.929Z,8.59
2023-04-18T01:32:08.035Z,8.59
2023-04-18T01:34:36.789Z,8.53
2023-04-18T01:37:07.887Z,8.59
2023-04-18T01:39:39.207Z,8.62
2023-04-18T01:42:07.633Z,8.65
2023-04-18T01:44:36.286Z,8.66
2023-04-18T01:47:04.922Z,8.71
2023-04-18T01:49:35.065Z,8.67
2023-04-18T01:52:03.908Z,8.71
2023-04-18T01:54:32.945Z,8.72
2023-04-18T01:57:03.508Z,8.77
2023-04-18T01:59:32.509Z,8.80
2023-04-18T02:02:04.148Z,8.79
2023-04-18T02:04:33.215Z,8.80
2023-04-18T02:07:01.653Z,8.83
2023-04-18T02:09:31.026Z,8.83
2023-04-18T02:12:01.809Z,8.82
2023-04-18T02:14:33.590Z,8.78
2023-04-18T02:17:03.298Z,8.81
2023-04-18T02:19:32.027Z,8.84
2023-04-18T02:22:00.374Z,8.82
2023-04-18T02:24:29.169Z,8.78
2023-04-18T02:26:57.515Z,8.73
2023-04-18T02:29:30.684Z,8.61
2023-04-18T02:32:00.558Z,8.77
2023-04-18T02:34:29.617Z,8.76
2023-04-18T02:36:58.072Z,8.77
2023-04-18T02:39:27.107Z,8.76
2023-04-18T02:41:56.093Z,8.67
2023-04-18T02:44:26.892Z,8.78
2023-04-18T02:46:56.491Z,8.82
2023-04-18T02:49:27.281Z,8.79
2023-04-18T02:51:56.252Z,8.83
2023-04-18T02:54:25.180Z,8.78
2023-04-18T02:57:07.722Z,8.81
2023-04-18T02:59:42.226Z,8.79
2023-04-18T03:02:33.932Z,8.79
2023-04-18T03:05:13.720Z,8.80
2023-04-18T03:07:41.845Z,8.76
2023-04-18T03:10:11.622Z,8.78
2023-04-18T03:12:41.180Z,8.84
2023-04-18T03:15:11.968Z,8.85
2023-04-18T03:17:41.124Z,8.89
2023-04-18T03:20:12.329Z,8.88
2023-04-18T03:22:42.651Z,8.89
2023-04-18T03:25:12.424Z,8.82
2023-04-18T03:27:52.576Z,8.79
2023-04-18T03:30:24.542Z,8.80
2023-04-18T03:32:56.327Z,8.72
2023-04-18T03:35:25.209Z,8.68
2023-04-18T03:37:54.908Z,8.71
2023-04-18T03:40:30.535Z,8.66
2023-04-18T03:43:04.726Z,8.60
2023-04-18T03:45:34.230Z,8.53
2023-04-18T03:48:02.755Z,8.53
2023-04-18T03:50:35.884Z,8.57
2023-04-18T03:53:08.306Z,8.60
2023-04-18T03:55:39.170Z,8.61
2023-04-18T03:58:08.262Z,8.53
2023-04-18T04:00:37.537Z,8.53
2023-04-18T04:03:10.166Z,8.51
2023-04-18T04:05:39.608Z,8.50
2023-04-18T04:08:09.708Z,8.54
2023-04-18T04:10:38.785Z,8.55
2023-04-18T04:13:07.860Z,8.63
2023-04-18T04:15:40.224Z,8.71
2023-04-18T04:18:11.693Z,8.73
2023-04-18T04:20:45.142Z,8.75
2023-04-18T04:23:34.394Z,8.77
2023-04-18T04:26:04.719Z,8.81
2023-04-18T04:28:47.548Z,8.75
2023-04-18T04:31:22.390Z,8.73
2023-04-18T04:33:51.982Z,8.71
2023-04-18T04:36:24.930Z,8.75
2023-04-18T04:38:55.912Z,8.78
2023-04-18T04:41:33.680Z,8.78
2023-04-18T04:44:02.575Z,8.76
2023-04-18T04:46:34.569Z,8.76
2023-04-18T04:49:08.150Z,8.69
2023-04-18T04:51:37.057Z,8.78
2023-04-18T04:54:07.246Z,8.79
2023-04-18T04:56:36.951Z,8.83
2023-04-18T04:59:06.110Z,8.75
2023-04-18T05:01:42.058Z,8.78
2023-04-18T05:04:12.999Z,8.78
2023-04-18T05:06:42.150Z,8.82
2023-04-18T05:09:11.948Z,8.85
2023-04-18T05:11:40.691Z,8.84
2023-04-18T05:14:09.313Z,8.87
2023-04-18T05:16:38.433Z,8.87
2023-04-18T05:19:06.896Z,8.91
2023-04-18T05:21:35.979Z,8.93
2023-04-18T05:24:04.465Z,8.98
2023-04-18T05:26:35.143Z,9.03
2023-04-18T05:29:03.529Z,9.05
2023-04-18T05:31:32.818Z,9.07
2023-04-18T05:34:01.491Z,9.07
2023-04-18T05:36:30.558Z,9.10
2023-04-18T05:38:59.235Z,9.12
2023-04-18T05:41:28.458Z,9.02
2023-04-18T05:44:05.347Z,9.18
2023-04-18T05:46:35.529Z,9.30
2023-04-18T05:49:04.178Z,9.26
2023-04-18T05:51:33.010Z,9.22
2023-04-18T05:54:01.591Z,9.23
2023-04-18T05:56:30.957Z,9.27
2023-04-18T05:59:01.055Z,9.30
2023-04-18T06:01:29.904Z,9.35
2023-04-18T06:03:58.812Z,9.36
2023-04-18T06:06:27.885Z,9.46
2023-04-18T06:08:56.354Z,9.55
2023-04-18T06:11:25.172Z,9.51
2023-04-18T06:13:55.946Z,9.63
2023-04-18T06:16:26.571Z,9.81
2023-04-18T06:18:55.924Z,9.98
2023-04-18T06:21:25.968Z,10.07
2023-04-18T06:23:54.662Z,10.24
2023-04-18T06:26:23.485Z,10.33
2023-04-18T06:28:51.764Z,10.43
2023-04-18T06:31:20.872Z,10.41
2023-04-18T06:33:52.539Z,10.34
2023-04-18T06:36:21.664Z,10.41
2023-04-18T06:38:50.251Z,10.57
2023-04-18T06:41:18.918Z,10.60
2023-04-18T06:44:02.081Z,10.74
2023-04-18T06:46:32.332Z,10.67
2023-04-18T06:49:02.715Z,10.78
2023-04-18T06:51:31.811Z,10.74
2023-04-18T06:54:00.452Z,10.64
2023-04-18T06:56:29.832Z,10.51
2023-04-18T06:58:58.375Z,10.64
2023-04-18T07:01:27.411Z,10.78
2023-04-18T07:03:56.255Z,10.82
2023-04-18T07:06:26.920Z,10.98
2023-04-18T07:09:00.292Z,10.94
2023-04-18T07:11:29.708Z,10.91
2023-04-18T07:13:58.042Z,10.84
2023-04-18T07:16:27.055Z,10.75
2023-04-18T07:18:55.434Z,10.63
2023-04-18T07:21:27.564Z,10.51
2023-04-18T07:23:56.150Z,10.55
2023-04-18T07:26:26.848Z,10.85
2023-04-18T07:28:55.550Z,10.93
2023-04-18T07:31:25.969Z,11.07
2023-04-18T07:33:54.829Z,11.31
2023-04-18T07:36:23.515Z,11.48
2023-04-18T07:38:53.481Z,11.50
2023-04-18T07:41:22.426Z,11.68
2023-04-18T07:43:50.992Z,11.64
2023-04-18T07:46:20.026Z,11.58
2023-04-18T07:48:48.688Z,11.62
2023-04-18T07:51:17.820Z,11.73
2023-04-18T07:53:46.643Z,11.57
2023-04-18T07:56:16.818Z,11.51
2023-04-18T07:58:44.965Z,11.32
2023-04-18T08:01:15.404Z,11.31
2023-04-18T08:03:43.831Z,11.29
2023-04-18T08:06:13.060Z,11.42
2023-04-18T08:08:41.574Z,11.52
2023-04-18T08:11:10.234Z,11.56
2023-04-18T08:13:40.465Z,11.51
2023-04-18T08:16:09.740Z,11.42
2023-04-18T08:18:38.228Z,11.38
2023-04-18T08:21:07.270Z,11.45
2023-04-18T08:23:35.578Z,11.61
2023-04-18T08:26:04.907Z,11.47
2023-04-18T08:28:33.513Z,11.46
2023-04-18T08:31:04.182Z,11.47
2023-04-18T08:33:32.828Z,11.45
2023-04-18T08:36:01.739Z,11.47
2023-04-18T08:38:30.793Z,11.72
2023-04-18T08:40:59.485Z,11.80
2023-04-18T08:43:30.308Z,11.74
2023-04-18T08:46:00.925Z,11.72
2023-04-18T08:48:30.785Z,11.69
2023-04-18T08:51:02.419Z,11.60
2023-04-18T08:53:32.643Z,11.64
2023-04-18T08:56:03.848Z,11.66
2023-04-18T08:58:33.962Z,11.78
2023-04-18T09:01:03.342Z,11.91
2023-04-18T09:03:41.197Z,12.24
2023-04-18T09:06:13.960Z,12.42
2023-04-18T09:08:45.195Z,12.45
2023-04-18T09:11:26.118Z,12.43
2023-04-18T09:13:56.525Z,12.53
2023-04-18T09:16:27.690Z,12.29
2023-04-18T09:19:18.737Z,12.01
2023-04-18T09:21:48.986Z,12.01
2023-04-18T09:24:24.391Z,12.03
2023-04-18T09:26:55.934Z,12.17
2023-04-18T09:29:43.521Z,12.40
2023-04-18T09:32:13.102Z,12.40
2023-04-18T09:34:44.449Z,12.34
2023-04-18T09:37:15.176Z,12.52
2023-04-18T09:39:45.596Z,12.54
2023-04-18T09:42:15.407Z,12.48
2023-04-18T09:45:03.852Z,12.55
2023-04-18T09:47:35.137Z,12.40
2023-04-18T09:50:06.995Z,12.48
2023-04-18T09:52:36.990Z,12.67
2023-04-18T09:55:07.108Z,12.63
2023-04-18T09:57:40.687Z,12.49
2023-04-18T10:00:14.186Z,12.67
2023-04-18T10:02:50.514Z,12.58
2023-04-18T10:05:22.690Z,12.62
2023-04-18T10:07:52.293Z,12.44
2023-04-18T10:10:21.741Z,12.36
2023-04-18T10:12:51.848Z,12.20
2023-04-18T10:15:22.425Z,12.25
2023-04-18T10:18:04.593Z,12.15
2023-04-18T10:20:36.300Z,12.36
2023-04-18T10:23:38.977Z,12.30
2023-04-18T10:26:09.259Z,12.29
2023-04-18T10:28:58.022Z,12.14
2023-04-18T10:31:27.534Z,11.92
2023-04-18T10:36:32.562Z,11.54
2023-04-18T10:39:03.637Z,11.45
2023-04-18T10:41:32.947Z,11.32
2023-04-18T10:44:23.725Z,11.14
2023-04-18T10:47:32.524Z,11.15
2023-04-18T10:50:06.789Z,11.00
2023-04-18T10:52:37.238Z,11.10
2023-04-18T10:55:17.323Z,11.43
2023-04-18T10:57:46.866Z,11.67
2023-04-18T11:00:17.090Z,11.74
2023-04-18T11:02:53.151Z,11.90
2023-04-18T11:05:24.415Z,11.99
2023-04-18T11:07:54.401Z,12.11
2023-04-18T11:10:25.689Z,12.19
2023-04-18T11:12:59.386Z,12.40
2023-04-18T11:15:30.401Z,12.54
2023-04-18T11:18:01.801Z,12.51
2023-04-18T11:20:38.383Z,12.64
2023-04-18T11:23:17.831Z,12.75
2023-04-18T11:25:47.192Z,12.88
2023-04-18T11:28:21.327Z,12.82
2023-04-18T11:30:50.663Z,13.00
2023-04-18T11:33:19.183Z,13.04
2023-04-18T11:35:48.538Z,12.94
2023-04-18T11:38:18.688Z,12.88
2023-04-18T11:40:51.389Z,12.88
2023-04-18T11:43:22.142Z,13.03
2023-04-18T11:45:53.700Z,12.97
2023-04-18T11:48:22.662Z,13.07
2023-04-18T11:50:52.571Z,13.21
2023-04-18T11:53:35.654Z,13.22
2023-04-18T11:56:04.740Z,13.02
2023-04-18T11:58:34.002Z,12.67
2023-04-18T12:01:16.550Z,12.67
2023-04-18T12:03:45.938Z,12.68
2023-04-18T12:06:14.866Z,12.69
2023-04-18T12:08:46.075Z,12.98
2023-04-18T12:11:21.894Z,13.13
2023-04-18T12:13:50.367Z,13.13
2023-04-18T12:16:19.310Z,13.03
2023-04-18T12:18:47.963Z,13.07
2023-04-18T12:21:17.240Z,12.98
2023-04-18T12:23:48.296Z,13.19
2023-04-18T12:26:20.099Z,13.37
2023-04-18T12:28:53.870Z,13.43
2023-04-18T12:31:22.862Z,13.51
2023-04-18T12:33:51.809Z,13.41
2023-04-18T12:36:23.215Z,13.36
2023-04-18T12:38:53.334Z,13.47
2023-04-18T12:41:21.965Z,13.01
2023-04-18T12:43:50.751Z,12.96
2023-04-18T12:46:19.942Z,12.91
2023-04-18T12:48:48.647Z,12.88
2023-04-18T12:51:17.758Z,12.81
2023-04-18T12:53:46.424Z,12.78
2023-04-18T12:56:16.657Z,12.80
2023-04-18T12:58:45.947Z,12.65
2023-04-18T13:01:16.609Z,12.52
2023-04-18T13:03:48.714Z,12.47
2023-04-18T13:06:22.317Z,12.54
2023-04-18T13:08:51.062Z,12.69
2023-04-18T13:11:22.757Z,13.00
2023-04-18T13:13:51.413Z,13.35
2023-04-18T13:16:20.242Z,13.54
2023-04-18T13:18:48.888Z,13.52
2023-04-18T13:21:17.593Z,13.20
2023-04-18T13:23:46.293Z,13.36
2023-04-18T13:26:15.216Z,13.41
2023-04-18T13:28:45.183Z,13.60
2023-04-18T13:31:16.344Z,13.50
2023-04-18T13:33:45.355Z,13.22
2023-04-18T13:36:14.416Z,13.08
2023-04-18T13:38:43.695Z,12.92
2023-04-18T13:41:13.551Z,12.60
2023-04-18T13:43:42.265Z,12.21
2023-04-18T13:46:13.239Z,12.00
2023-04-18T13:48:41.656Z,12.00
2023-04-18T13:51:11.024Z,12.06
2023-04-18T13:53:39.499Z,11.95
2023-04-18T13:56:08.858Z,11.94
2023-04-18T13:58:37.593Z,11.93
2023-04-18T14:01:06.543Z,12.07
2023-04-18T14:03:38.908Z,12.06
2023-04-18T14:06:09.171Z,12.12
2023-04-18T14:08:37.466Z,12.29
2023-04-18T14:11:06.802Z,12.21
2023-04-18T14:13:35.764Z,12.01
2023-04-18T14:16:04.873Z,12.07
2023-04-18T14:18:33.706Z,12.11
2023-04-18T14:21:04.264Z,12.18
2023-04-18T14:23:32.896Z,12.22
2023-04-18T14:26:03.221Z,12.08
2023-04-18T14:28:31.795Z,12.05
2023-04-18T14:31:02.284Z,11.92
2023-04-18T14:33:31.078Z,11.74
2023-04-18T14:35:59.962Z,11.66
2023-04-18T14:38:29.854Z,11.64
2023-04-18T14:40:58.957Z,11.54
2023-04-18T14:43:28.388Z,11.46
2023-04-18T14:45:59.014Z,11.62
2023-04-18T14:48:28.442Z,11.63
2023-04-18T14:51:02.644Z,11.81
2023-04-18T14:53:32.915Z,11.90
2023-04-18T14:56:01.949Z,11.98
2023-04-18T14:58:30.318Z,11.97
2023-04-18T15:00:59.199Z,11.96
2023-04-18T15:03:28.036Z,12.00
2023-04-18T15:05:57.962Z,12.00
2023-04-18T15:08:26.979Z,12.04
2023-04-18T15:10:57.437Z,11.90
2023-04-18T15:13:25.886Z,11.73
2023-04-18T15:15:55.803Z,11.77
2023-04-18T15:18:24.691Z,11.76
2023-04-18T15:20:53.913Z,11.68
2023-04-18T15:23:22.552Z,11.58
2023-04-18T15:25:51.551Z,11.46
2023-04-18T15:28:21.853Z,11.30
2023-04-18T15:30:50.672Z,11.12
2023-04-18T15:33:20.604Z,11.08
2023-04-18T15:35:49.773Z,11.07
2023-04-18T15:38:19.130Z,11.02
2023-04-18T15:40:48.062Z,11.01
2023-04-18T15:43:17.362Z,11.03
2023-04-18T15:45:48.465Z,11.04
2023-04-18T15:48:17.205Z,11.06
2023-04-18T15:50:52.190Z,11.08
2023-04-18T15:53:20.903Z,11.02
2023-04-18T15:55:51.000Z,10.95
2023-04-18T15:58:20.707Z,10.93
2023-04-18T16:00:52.073Z,10.82
2023-04-18T16:03:20.646Z,10.78
2023-04-18T16:05:49.743Z,10.62
2023-04-18T16:08:18.383Z,10.54
2023-04-18T16:10:47.159Z,10.63
2023-04-18T16:13:16.215Z,10.66
2023-04-18T16:15:45.009Z,10.54
2023-04-18T16:18:15.341Z,10.56
2023-04-18T16:20:44.110Z,10.46
2023-04-18T16:23:12.594Z,10.24
2023-04-18T16:25:41.780Z,10.18
2023-04-18T16:28:10.622Z,10.15
2023-04-18T16:30:39.569Z,10.06
2023-04-18T16:33:08.450Z,10.15
2023-04-18T16:35:40.263Z,10.21
2023-04-18T16:38:08.961Z,10.15
2023-04-18T16:40:38.257Z,10.15
2023-04-18T16:43:07.624Z,10.08
2023-04-18T16:45:37.559Z,10.05
2023-04-18T16:48:07.016Z,9.95
2023-04-18T16:50:35.606Z,9.88
2023-04-18T16:53:05.898Z,9.90
2023-04-18T16:55:34.659Z,9.81
2023-04-18T16:58:03.298Z,9.65
2023-04-18T17:00:32.391Z,9.62
2023-04-18T17:03:01.801Z,9.53
2023-04-18T17:05:33.391Z,9.58
2023-04-18T17:08:03.629Z,9.52
2023-04-18T17:10:34.726Z,9.41
2023-04-18T17:13:04.252Z,9.31
2023-04-18T17:15:32.702Z,9.12
2023-04-18T17:18:02.704Z,9.11
2023-04-18T17:20:31.704Z,9.06
2023-04-18T17:23:00.060Z,9.08
2023-04-18T17:25:29.013Z,8.97
2023-04-18T17:28:02.220Z,8.83
2023-04-18T17:30:31.547Z,8.64
2023-04-18T17:33:00.072Z,8.65
2023-04-18T17:35:28.996Z,8.61
2023-04-18T17:37:57.735Z,8.61
2023-04-18T17:40:26.801Z,8.58
2023-04-18T17:42:55.471Z,8.38
2023-04-18T17:45:26.145Z,8.51
2023-04-18T17:47:54.872Z,8.47
2023-04-18T17:50:23.983Z,8.47
2023-04-18T17:52:53.520Z,8.45
2023-04-18T17:55:21.976Z,8.31
2023-04-18T17:57:50.608Z,8.33
2023-04-18T18:00:20.056Z,8.33
2023-04-18T18:02:50.331Z,8.32
2023-04-18T18:05:19.194Z,8.22
2023-04-18T18:07:47.659Z,8.25
2023-04-18T18:10:20.150Z,8.20
2023-04-18T18:12:49.023Z,8.23
2023-04-18T18:15:17.889Z,8.19
2023-04-18T18:17:46.417Z,8.12
2023-04-18T18:20:17.175Z,8.08
2023-04-18T18:22:46.422Z,8.04
2023-04-18T18:25:15.460Z,7.98
2023-04-18T18:27:44.293Z,7.92
2023-04-18T18:30:15.102Z,7.90
2023-04-18T18:32:43.755Z,7.89
2023-04-18T18:35:13.458Z,7.78
2023-04-18T18:37:43.630Z,7.74
2023-04-18T18:40:12.985Z,7.78
2023-04-18T18:42:42.650Z,7.78
2023-04-18T18:45:12.106Z,7.71
2023-04-18T18:47:40.631Z,7.71
2023-04-18T18:50:10.050Z,7.65
2023-04-18T18:52:40.815Z,7.60
2023-04-18T18:55:12.643Z,7.64
2023-04-18T18:57:41.360Z,7.61
2023-04-18T19:00:12.190Z,7.46
2023-04-18T19:02:41.551Z,7.52
2023-04-18T19:05:12.689Z,7.42
2023-04-18T19:07:42.482Z,7.42
2023-04-18T19:10:13.056Z,7.44
2023-04-18T19:12:41.610Z,7.43
2023-04-18T19:15:11.174Z,7.42
2023-04-18T19:17:39.692Z,7.41
2023-04-18T19:20:09.950Z,7.41
2023-04-18T19:22:39.168Z,7.33
2023-04-18T19:25:08.980Z,7.26
2023-04-18T19:27:38.702Z,7.30
2023-04-18T19:30:08.860Z,7.29
2023-04-18T19:32:37.227Z,7.21
2023-04-18T19:35:06.973Z,7.21
2023-04-18T19:37:36.225Z,7.24
2023-04-18T19:40:06.882Z,7.28
2023-04-18T19:42:35.274Z,7.25
2023-04-18T19:45:06.474Z,7.23
2023-04-18T19:47:35.841Z,7.19
2023-04-18T19:50:04.774Z,7.18
2023-04-18T19:52:33.145Z,7.19
2023-04-18T19:55:01.851Z,7.17
2023-04-18T19:57:30.456Z,7.12
2023-04-18T19:59:59.194Z,7.13
2023-04-18T20:02:29.255Z,7.14
2023-04-18T20:04:58.325Z,7.11
2023-04-18T20:07:27.047Z,7.13
2023-04-18T20:09:55.913Z,7.09
2023-04-18T20:12:25.079Z,7.05
2023-04-18T20:14:56.186Z,7.04
2023-04-18T20:17:24.874Z,6.98
2023-04-18T20:19:57.171Z,6.97
2023-04-18T20:22:26.829Z,6.91
2023-04-18T20:24:57.321Z,6.95
2023-04-18T20:27:26.057Z,6.94
2023-04-18T20:29:57.136Z,6.81
2023-04-18T20:32:26.791Z,6.84
2023-04-18T20:34:58.716Z,6.75
2023-04-18T20:37:28.003Z,6.77
2023-04-18T20:39:58.863Z,6.75
2023-04-18T20:42:28.432Z,6.76
2023-04-18T20:44:58.959Z,6.69
2023-04-18T20:47:28.370Z,6.73
2023-04-18T20:49:58.194Z,6.65
2023-04-18T20:52:26.816Z,6.60
2023-04-18T20:54:56.075Z,6.62
2023-04-18T20:57:24.438Z,6.49
2023-04-18T20:59:54.458Z,6.53
2023-04-18T21:02:23.569Z,6.53
2023-04-18T21:04:52.803Z,6.50
2023-04-18T21:07:22.826Z,6.49
2023-04-18T21:09:51.904Z,6.42
2023-04-18T21:12:20.276Z,6.43
2023-04-18T21:14:50.046Z,6.45
2023-04-18T21:17:19.099Z,6.45
2023-04-18T21:19:48.226Z,6.34
2023-04-18T21:22:17.508Z,6.38
2023-04-18T21:24:48.286Z,6.37
2023-04-18T21:27:17.031Z,6.32
2023-04-18T21:29:45.959Z,6.36
2023-04-18T21:32:14.290Z,6.32
2023-04-18T21:34:43.243Z,6.28
2023-04-18T21:37:11.976Z,6.29
2023-04-18T21:39:42.580Z,6.25
2023-04-18T21:42:12.856Z,6.23
2023-04-18T21:44:41.813Z,6.21
2023-04-18T21:47:10.321Z,6.16
2023-04-18T21:49:39.009Z,6.09
2023-04-18T21:52:08.409Z,6.17
2023-04-18T21:54:37.072Z,6.11
2023-04-18T21:57:06.331Z,6.13
2023-04-18T21:59:36.204Z,6.13
2023-04-18T22:02:06.194Z,6.13
2023-04-18T22:04:38.219Z,6.10
2023-04-18T22:07:06.893Z,6.09
2023-04-18T22:09:36.416Z,6.07
2023-04-18T22:12:05.689Z,6.05
2023-04-18T22:14:35.290Z,6.04
2023-04-18T22:17:05.540Z,6.06
2023-04-18T22:19:35.866Z,6.07
2023-04-18T22:22:04.937Z,6.07
2023-04-18T22:24:34.188Z,6.07
2023-04-18T22:27:03.087Z,6.09
2023-04-18T22:29:32.138Z,6.09
2023-04-18T22:32:01.000Z,6.16
2023-04-18T22:34:31.449Z,6.19
2023-04-18T22:36:59.944Z,6.20
2023-04-18T22:39:28.766Z,6.27
2023-04-18T22:41:57.641Z,6.27
2023-04-18T22:44:27.402Z,6.32
2023-04-18T22:46:56.200Z,6.34
2023-04-18T22:49:25.192Z,6.38
2023-04-18T22:51:55.633Z,6.41
2023-04-18T22:54:24.521Z,6.45
2023-04-18T22:56:53.767Z,6.44
2023-04-18T22:59:22.914Z,6.48
2023-04-18T23:01:51.909Z,6.57
2023-04-18T23:04:21.139Z,6.62
2023-04-18T23:06:50.079Z,6.72
2023-04-18T23:09:20.991Z,6.79
2023-04-18T23:11:49.771Z,6.82
2023-04-18T23:14:19.421Z,6.86
2023-04-18T23:16:48.027Z,6.84
2023-04-18T23:19:17.260Z,6.95
2023-04-18T23:21:47.077Z,7.03
2023-04-18T23:24:19.575Z,7.04
2023-04-18T23:26:48.517Z,7.09
2023-04-18T23:29:17.938Z,7.12
2023-04-18T23:31:46.915Z,7.15
2023-04-18T23:34:16.420Z,7.21
2023-04-18T23:36:45.261Z,7.20
2023-04-18T23:39:14.493Z,7.23
2023-04-18T23:41:44.670Z,7.18
2023-04-18T23:44:14.312Z,7.26
2023-04-18T23:46:43.094Z,7.25
2023-04-18T23:49:12.362Z,7.29
2023-04-18T23:51:41.212Z,7.31
2023-04-18T23:54:10.553Z,7.20
2023-04-18T23:56:39.412Z,7.26
2023-04-18T23:59:10.208Z,7.26
